Atwood, Wisconsin
Current Conditions -  °F | °C
As of 4:35 PM on Wednesday 22 Oct 2014 (Local Time) from KMDZ Reporting Station
Clear Clear  
Wind Chill: 53°   Ceiling: Unl
Heat Index: 53°   Visibility: 10mi
Dew Point: 32°   Wind: 13mph
Humidity: 44%   Direction: 150°SSE
Pressure: 30.2"   Gusts: NA
Location:  44.9782°N, 90.5368°W
Report Text: KMDZ 222135Z AUTO 15011KT 10SM CLR 12/00 A3020 RMK AO2 T01191001
Loading
Personal Weather Stations






























Interactive Weather Map New forecast layout! Learn more

10-Day Weather Forecast

Advertisements
Track Severe Weather on mobile